»·PEaware :: N100AH KTUS-KPHX

N100AH :: KTUS-KPHX

FLIGHT INFORMATION

Flight Status: Arrived
Operator: Privately registered:
United States
More flights under this callsign
Pilot: Anonymous 42100 (42100)
Aircraft: CESSNA 172 SKYHAWK
(C172)
More flights by this aircraft type
Origin: KTUS Tucson Intl
United States
Destination: KPHX Phoenix Sky Harbor Intl
United States
More flights between these airports :: More routes between these airports
Route: TUS V105 PXR
File this flight plan on PilotEdge
Remarks:
Altitude:
(Current/Filed)
12,000ft
Speed:
(Current/Filed)
110kts
Departed: 05-Jul-23 06:23 AM
Arrived: 05-Jul-23 07:31 AM
Distance/Time
Traveled:
96nm/1:08
Distance/Time
To Go:
Arrived

Flight Plot

Page will automatically refresh every two minutes.

Flight plan parsing failed; only flown route is shown


Map Options




Map Legend


Flown Route
Filed Route
Departure Airport
Arrival Airport
Navaid (VOR, NDB)
Fix

Horizontal Profiles

Position Reports

Time Latitude Longitude Heading Altitude Ground
Speed
05-Jul-23 06:00 32.119939 -110.937499 98 2597ft 0kts
05-Jul-23 06:01 32.119939 -110.937498 98 2597ft 0kts
05-Jul-23 06:02 32.119939 -110.937498 98 2597ft 0kts
05-Jul-23 06:03 32.119939 -110.937498 98 2597ft 0kts
05-Jul-23 06:04 32.119939 -110.937498 98 2597ft 0kts
05-Jul-23 06:05 32.119939 -110.937498 98 2597ft 0kts
05-Jul-23 06:06 32.119939 -110.937498 98 2597ft 0kts
05-Jul-23 06:07 32.119939 -110.937498 98 2597ft 0kts
05-Jul-23 06:08 32.119939 -110.937498 98 2597ft 0kts
05-Jul-23 06:09 32.119939 -110.937498 98 2597ft 0kts
05-Jul-23 06:10 32.119939 -110.937498 98 2597ft 0kts
05-Jul-23 06:11 32.119939 -110.937498 98 2597ft 0kts
05-Jul-23 06:12 32.119939 -110.937498 98 2597ft 0kts
05-Jul-23 06:13 32.119939 -110.937498 98 2597ft 0kts
05-Jul-23 06:14 32.119939 -110.937498 98 2597ft 0kts
05-Jul-23 06:15 32.119939 -110.937498 98 2597ft 0kts
05-Jul-23 06:16 32.119939 -110.937498 98 2597ft 0kts
05-Jul-23 06:17 32.119939 -110.937498 98 2597ft 0kts
05-Jul-23 06:18 32.118765 -110.939965 300 2598ft 15kts
05-Jul-23 06:19 32.122309 -110.944138 315 2583ft 20kts
05-Jul-23 06:20 32.123543 -110.946464 229 2576ft 0kts
05-Jul-23 06:21 32.122353 -110.946700 133 2578ft 23kts
05-Jul-23 06:22 32.107979 -110.930914 134 3253ft 77kts
05-Jul-23 06:23 32.107341 -110.912629 356 4096ft 87kts
05-Jul-23 06:24 32.123050 -110.933406 299 4903ft 86kts
05-Jul-23 06:25 32.136767 -110.956880 323 5657ft 86kts
05-Jul-23 06:26 32.155367 -110.974533 322 6377ft 85kts
05-Jul-23 06:27 32.173897 -110.992720 324 7026ft 88kts
05-Jul-23 06:28 32.192346 -111.010569 321 7671ft 85kts
05-Jul-23 06:29 32.210540 -111.028548 320 8258ft 86kts
05-Jul-23 06:30 32.229048 -111.046891 320 8805ft 87kts
05-Jul-23 06:31 32.247724 -111.065384 316 9334ft 87kts
05-Jul-23 06:32 32.266291 -111.083860 320 9833ft 87kts
05-Jul-23 06:33 32.285538 -111.102733 319 10271ft 93kts
05-Jul-23 06:34 32.305829 -111.122797 319 10675ft 98kts
05-Jul-23 06:35 32.327280 -111.144009 318 11081ft 100kts
05-Jul-23 06:36 32.348310 -111.164846 317 11425ft 99kts
05-Jul-23 06:37 32.369404 -111.185757 317 11771ft 99kts
05-Jul-23 06:38 32.391679 -111.207869 317 11924ft 117kts
05-Jul-23 06:39 32.417173 -111.233110 317 11922ft 120kts
05-Jul-23 06:40 32.442476 -111.258237 317 11925ft 118kts
05-Jul-23 06:41 32.467285 -111.283478 316 11928ft 117kts
05-Jul-23 06:42 32.491591 -111.309238 314 11932ft 117kts
05-Jul-23 06:43 32.515452 -111.335484 313 11934ft 117kts
05-Jul-23 06:44 32.538962 -111.362327 312 11936ft 117kts
05-Jul-23 06:45 32.565617 -111.384695 323 11936ft 118kts
05-Jul-23 06:46 32.591793 -111.408019 318 11936ft 118kts
05-Jul-23 06:47 32.617273 -111.432624 318 11936ft 118kts
05-Jul-23 06:48 32.642503 -111.457435 317 11936ft 118kts
05-Jul-23 06:49 32.667699 -111.482434 317 11935ft 118kts
05-Jul-23 06:50 32.692761 -111.507519 317 11933ft 118kts
05-Jul-23 06:51 32.716425 -111.531220 317 12078ft 112kts
05-Jul-23 06:52 32.740812 -111.555649 317 12074ft 117kts
05-Jul-23 06:53 32.765922 -111.580679 317 12070ft 118kts
05-Jul-23 06:54 32.791104 -111.605978 317 12066ft 118kts
05-Jul-23 06:55 32.816326 -111.631253 317 12065ft 118kts
05-Jul-23 06:56 32.845847 -111.648190 338 12065ft 119kts
05-Jul-23 06:57 32.869061 -111.674676 308 12064ft 117kts
05-Jul-23 06:58 32.894101 -111.699716 323 12064ft 119kts
05-Jul-23 06:59 32.926583 -111.704385 350 12065ft 120kts
05-Jul-23 07:00 32.958547 -111.715319 338 12065ft 119kts
05-Jul-23 07:01 32.989383 -111.730341 335 12042ft 120kts
05-Jul-23 07:02 33.019884 -111.746426 334 12034ft 119kts
05-Jul-23 07:03 33.051205 -111.763288 335 11598ft 129kts
05-Jul-23 07:04 33.084065 -111.780996 335 10793ft 131kts
05-Jul-23 07:05 33.116896 -111.798719 336 9790ft 129kts
05-Jul-23 07:06 33.149367 -111.816268 336 8787ft 129kts
05-Jul-23 07:07 33.181923 -111.833888 336 7788ft 129kts
05-Jul-23 07:08 33.214508 -111.851514 337 6785ft 128kts
05-Jul-23 07:09 33.246394 -111.868775 337 5999ft 114kts
05-Jul-23 07:10 33.274203 -111.883702 336 5996ft 108kts
05-Jul-23 07:11 33.301950 -111.898937 337 5795ft 116kts
05-Jul-23 07:12 33.331596 -111.915029 337 5294ft 116kts
05-Jul-23 07:13 33.348920 -111.941736 270 4991ft 107kts
05-Jul-23 07:14 33.349199 -111.978677 270 4990ft 113kts
05-Jul-23 07:15 33.349618 -112.016587 270 4986ft 114kts
05-Jul-23 07:16 33.350207 -112.056826 270 4985ft 128kts
05-Jul-23 07:17 33.351009 -112.100439 270 4981ft 132kts
05-Jul-23 07:18 33.352098 -112.144288 270 4981ft 131kts
05-Jul-23 07:19 33.353441 -112.187908 270 4981ft 130kts
05-Jul-23 07:20 33.354933 -112.231165 270 4981ft 129kts
05-Jul-23 07:21 33.370284 -112.263934 357 4871ft 136kts
05-Jul-23 07:22 33.407296 -112.263238 8 4367ft 133kts
05-Jul-23 07:23 33.429414 -112.230146 63 3980ft 123kts
05-Jul-23 07:24 33.429057 -112.191849 93 3752ft 116kts
05-Jul-23 07:25 33.428821 -112.153728 92 3248ft 111kts
05-Jul-23 07:26 33.428955 -112.121689 90 2737ft 85kts
05-Jul-23 07:27 33.429031 -112.091616 91 2229ft 95kts
05-Jul-23 07:28 33.428983 -112.059888 91 1695ft 93kts
05-Jul-23 07:29 33.428826 -112.029464 89 1223ft 89kts
05-Jul-23 07:30 33.428730 -112.011671 108 1117ft 23kts
05-Jul-23 07:31 33.427716 -112.011044 274 1116ft 14kts
05-Jul-23 07:32 33.427745 -112.019904 270 1113ft 17kts
05-Jul-23 07:33 33.425587 -112.021769 180 1113ft 0kts

Navigation Log

Ident Type
Flight plan parsing failed, navigation log unavailable